sensor_id;sensor_type;location;lat;lon;timestamp;P1;durP1;ratioP1;P2;durP2;ratioP2
43248;SDS011;29216;51.248;6.808;2023-02-15T00:00:02;32.35;;;17.50;;
43248;SDS011;29216;51.248;6.808;2023-02-15T00:02:30;30.40;;;16.25;;
43248;SDS011;29216;51.248;6.808;2023-02-15T00:04:56;30.65;;;18.40;;
43248;SDS011;29216;51.248;6.808;2023-02-15T00:07:21;32.85;;;18.65;;
43248;SDS011;29216;51.248;6.808;2023-02-15T00:09:47;30.10;;;16.85;;
43248;SDS011;29216;51.248;6.808;2023-02-15T00:12:13;30.67;;;17.10;;
43248;SDS011;29216;51.248;6.808;2023-02-15T00:14:40;30.42;;;18.20;;
43248;SDS011;29216;51.248;6.808;2023-02-15T00:17:07;28.50;;;17.58;;
43248;SDS011;29216;51.248;6.808;2023-02-15T00:19:32;31.80;;;18.70;;
43248;SDS011;29216;51.248;6.808;2023-02-15T00:21:58;32.13;;;18.60;;
43248;SDS011;29216;51.248;6.808;2023-02-15T00:24:24;30.00;;;17.45;;
43248;SDS011;29216;51.248;6.808;2023-02-15T00:26:49;32.40;;;18.33;;
43248;SDS011;29216;51.248;6.808;2023-02-15T00:29:15;29.13;;;17.13;;
43248;SDS011;29216;51.248;6.808;2023-02-15T00:31:42;34.17;;;19.48;;
43248;SDS011;29216;51.248;6.808;2023-02-15T00:34:15;34.85;;;18.58;;
43248;SDS011;29216;51.248;6.808;2023-02-15T00:36:43;30.90;;;18.85;;
43248;SDS011;29216;51.248;6.808;2023-02-15T00:39:09;31.08;;;17.65;;
43248;SDS011;29216;51.248;6.808;2023-02-15T00:41:35;32.53;;;17.40;;
43248;SDS011;29216;51.248;6.808;2023-02-15T00:44:01;29.58;;;17.77;;
43248;SDS011;29216;51.248;6.808;2023-02-15T00:46:27;29.30;;;17.70;;
43248;SDS011;29216;51.248;6.808;2023-02-15T00:48:53;32.80;;;19.38;;
43248;SDS011;29216;51.248;6.808;2023-02-15T00:51:18;32.65;;;18.40;;
43248;SDS011;29216;51.248;6.808;2023-02-15T00:53:45;33.97;;;17.63;;
43248;SDS011;29216;51.248;6.808;2023-02-15T00:56:11;30.65;;;17.23;;
43248;SDS011;29216;51.248;6.808;2023-02-15T00:58:36;32.33;;;17.35;;
43248;SDS011;29216;51.248;6.808;2023-02-15T01:01:06;34.53;;;18.83;;
43248;SDS011;29216;51.248;6.808;2023-02-15T01:03:35;31.85;;;18.88;;
43248;SDS011;29216;51.248;6.808;2023-02-15T01:06:01;32.22;;;18.92;;
43248;SDS011;29216;51.248;6.808;2023-02-15T01:08:27;29.63;;;16.42;;
43248;SDS011;29216;51.248;6.808;2023-02-15T01:10:53;33.03;;;18.25;;
43248;SDS011;29216;51.248;6.808;2023-02-15T01:13:19;32.00;;;18.33;;
43248;SDS011;29216;51.248;6.808;2023-02-15T01:15:45;29.25;;;17.73;;
43248;SDS011;29216;51.248;6.808;2023-02-15T01:18:17;31.85;;;17.63;;
43248;SDS011;29216;51.248;6.808;2023-02-15T01:20:43;36.92;;;21.00;;
43248;SDS011;29216;51.248;6.808;2023-02-15T01:23:08;37.00;;;18.90;;
43248;SDS011;29216;51.248;6.808;2023-02-15T01:25:34;34.10;;;19.05;;
43248;SDS011;29216;51.248;6.808;2023-02-15T01:28:00;34.50;;;18.83;;
43248;SDS011;29216;51.248;6.808;2023-02-15T01:30:27;33.00;;;18.45;;
43248;SDS011;29216;51.248;6.808;2023-02-15T01:32:52;34.38;;;18.20;;
43248;SDS011;29216;51.248;6.808;2023-02-15T01:35:18;32.35;;;17.77;;
43248;SDS011;29216;51.248;6.808;2023-02-15T01:37:44;37.60;;;19.98;;
43248;SDS011;29216;51.248;6.808;2023-02-15T01:40:13;33.47;;;20.05;;
43248;SDS011;29216;51.248;6.808;2023-02-15T01:42:41;31.85;;;18.45;;
43248;SDS011;29216;51.248;6.808;2023-02-15T01:48:02;35.00;;;19.30;;
43248;SDS011;29216;51.248;6.808;2023-02-15T01:50:39;33.90;;;18.33;;
43248;SDS011;29216;51.248;6.808;2023-02-15T01:56:02;34.65;;;18.98;;
43248;SDS011;29216;51.248;6.808;2023-02-15T01:58:34;34.95;;;19.17;;
43248;SDS011;29216;51.248;6.808;2023-02-15T02:01:01;36.42;;;19.92;;
43248;SDS011;29216;51.248;6.808;2023-02-15T02:03:43;35.58;;;19.67;;
43248;SDS011;29216;51.248;6.808;2023-02-15T02:06:21;31.60;;;18.58;;
43248;SDS011;29216;51.248;6.808;2023-02-15T02:08:47;35.20;;;20.15;;
43248;SDS011;29216;51.248;6.808;2023-02-15T02:11:14;33.63;;;18.42;;
43248;SDS011;29216;51.248;6.808;2023-02-15T02:13:40;38.15;;;19.80;;
43248;SDS011;29216;51.248;6.808;2023-02-15T02:35:28;38.67;;;19.85;;
43248;SDS011;29216;51.248;6.808;2023-02-15T02:41:16;32.45;;;18.00;;
43248;SDS011;29216;51.248;6.808;2023-02-15T02:46:33;34.78;;;18.52;;
43248;SDS011;29216;51.248;6.808;2023-02-15T02:52:07;35.53;;;20.83;;
43248;SDS011;29216;51.248;6.808;2023-02-15T02:55:10;35.47;;;19.60;;
43248;SDS011;29216;51.248;6.808;2023-02-15T02:57:56;34.40;;;19.40;;
43248;SDS011;29216;51.248;6.808;2023-02-15T03:00:26;35.90;;;20.52;;
43248;SDS011;29216;51.248;6.808;2023-02-15T03:02:57;35.63;;;19.88;;
43248;SDS011;29216;51.248;6.808;2023-02-15T03:05:30;37.38;;;19.75;;
43248;SDS011;29216;51.248;6.808;2023-02-15T03:07:58;34.00;;;19.70;;
43248;SDS011;29216;51.248;6.808;2023-02-15T03:10:30;36.00;;;19.80;;
43248;SDS011;29216;51.248;6.808;2023-02-15T03:12:58;31.80;;;19.67;;
43248;SDS011;29216;51.248;6.808;2023-02-15T03:15:25;36.67;;;19.20;;
43248;SDS011;29216;51.248;6.808;2023-02-15T03:18:18;35.78;;;19.27;;
43248;SDS011;29216;51.248;6.808;2023-02-15T03:20:47;35.17;;;20.73;;
43248;SDS011;29216;51.248;6.808;2023-02-15T03:23:16;38.25;;;20.80;;
43248;SDS011;29216;51.248;6.808;2023-02-15T03:25:49;34.00;;;19.13;;
43248;SDS011;29216;51.248;6.808;2023-02-15T03:28:25;35.45;;;19.80;;
43248;SDS011;29216;51.248;6.808;2023-02-15T03:30:55;36.15;;;19.83;;
43248;SDS011;29216;51.248;6.808;2023-02-15T03:33:26;41.35;;;21.48;;
43248;SDS011;29216;51.248;6.808;2023-02-15T03:36:11;37.45;;;19.77;;
43248;SDS011;29216;51.248;6.808;2023-02-15T03:38:46;35.10;;;19.75;;
43248;SDS011;29216;51.248;6.808;2023-02-15T03:41:24;37.42;;;20.40;;
43248;SDS011;29216;51.248;6.808;2023-02-15T03:43:59;39.50;;;19.25;;
43248;SDS011;29216;51.248;6.808;2023-02-15T03:46:40;35.30;;;20.00;;
43248;SDS011;29216;51.248;6.808;2023-02-15T03:52:08;35.83;;;20.30;;
43248;SDS011;29216;51.248;6.808;2023-02-15T03:54:36;43.38;;;21.52;;
43248;SDS011;29216;51.248;6.808;2023-02-15T03:57:15;38.55;;;20.70;;
43248;SDS011;29216;51.248;6.808;2023-02-15T04:00:26;37.90;;;19.42;;
43248;SDS011;29216;51.248;6.808;2023-02-15T04:03:12;36.65;;;20.25;;
43248;SDS011;29216;51.248;6.808;2023-02-15T04:05:40;34.30;;;18.98;;
43248;SDS011;29216;51.248;6.808;2023-02-15T04:08:07;34.92;;;19.67;;
43248;SDS011;29216;51.248;6.808;2023-02-15T04:10:33;34.13;;;19.48;;
43248;SDS011;29216;51.248;6.808;2023-02-15T04:13:17;34.58;;;20.10;;
43248;SDS011;29216;51.248;6.808;2023-02-15T04:15:54;37.72;;;20.23;;
43248;SDS011;29216;51.248;6.808;2023-02-15T04:18:33;38.25;;;20.25;;
43248;SDS011;29216;51.248;6.808;2023-02-15T04:21:25;34.80;;;20.23;;
43248;SDS011;29216;51.248;6.808;2023-02-15T04:24:10;39.23;;;21.90;;
43248;SDS011;29216;51.248;6.808;2023-02-15T04:26:56;36.85;;;19.85;;
43248;SDS011;29216;51.248;6.808;2023-02-15T04:29:22;34.55;;;19.35;;
43248;SDS011;29216;51.248;6.808;2023-02-15T04:31:49;36.83;;;19.63;;
43248;SDS011;29216;51.248;6.808;2023-02-15T04:34:16;36.90;;;20.35;;
43248;SDS011;29216;51.248;6.808;2023-02-15T04:36:45;38.25;;;21.10;;
43248;SDS011;29216;51.248;6.808;2023-02-15T04:39:14;37.72;;;20.83;;
43248;SDS011;29216;51.248;6.808;2023-02-15T04:41:41;38.77;;;20.27;;
43248;SDS011;29216;51.248;6.808;2023-02-15T04:44:06;35.60;;;20.97;;
43248;SDS011;29216;51.248;6.808;2023-02-15T04:46:32;37.60;;;19.33;;
43248;SDS011;29216;51.248;6.808;2023-02-15T04:48:57;33.35;;;18.35;;
43248;SDS011;29216;51.248;6.808;2023-02-15T04:51:23;38.33;;;20.10;;
43248;SDS011;29216;51.248;6.808;2023-02-15T04:53:49;38.20;;;20.60;;
43248;SDS011;29216;51.248;6.808;2023-02-15T04:56:17;36.97;;;19.97;;
43248;SDS011;29216;51.248;6.808;2023-02-15T04:58:43;36.60;;;20.00;;
43248;SDS011;29216;51.248;6.808;2023-02-15T05:01:11;41.80;;;21.40;;
43248;SDS011;29216;51.248;6.808;2023-02-15T05:03:37;40.83;;;20.27;;
43248;SDS011;29216;51.248;6.808;2023-02-15T05:06:03;39.38;;;21.58;;
43248;SDS011;29216;51.248;6.808;2023-02-15T05:08:29;39.40;;;20.57;;
43248;SDS011;29216;51.248;6.808;2023-02-15T05:10:55;37.63;;;20.35;;
43248;SDS011;29216;51.248;6.808;2023-02-15T05:13:21;37.63;;;20.37;;
43248;SDS011;29216;51.248;6.808;2023-02-15T05:15:51;40.00;;;21.47;;
43248;SDS011;29216;51.248;6.808;2023-02-15T05:18:18;37.63;;;20.27;;
43248;SDS011;29216;51.248;6.808;2023-02-15T05:20:45;34.47;;;19.77;;
43248;SDS011;29216;51.248;6.808;2023-02-15T05:23:13;40.47;;;21.03;;
43248;SDS011;29216;51.248;6.808;2023-02-15T05:25:39;39.23;;;21.30;;
43248;SDS011;29216;51.248;6.808;2023-02-15T05:28:25;37.10;;;19.88;;
43248;SDS011;29216;51.248;6.808;2023-02-15T05:33:28;37.97;;;19.43;;
43248;SDS011;29216;51.248;6.808;2023-02-15T05:35:54;37.77;;;20.07;;
43248;SDS011;29216;51.248;6.808;2023-02-15T05:38:20;39.37;;;20.90;;
43248;SDS011;29216;51.248;6.808;2023-02-15T05:40:45;35.93;;;19.57;;
43248;SDS011;29216;51.248;6.808;2023-02-15T05:43:11;33.97;;;18.47;;
43248;SDS011;29216;51.248;6.808;2023-02-15T05:45:37;32.30;;;18.83;;
43248;SDS011;29216;51.248;6.808;2023-02-15T05:48:02;36.73;;;19.77;;
43248;SDS011;29216;51.248;6.808;2023-02-15T05:50:28;37.30;;;19.97;;
43248;SDS011;29216;51.248;6.808;2023-02-15T05:52:53;36.37;;;19.60;;
43248;SDS011;29216;51.248;6.808;2023-02-15T05:55:19;40.07;;;19.17;;
43248;SDS011;29216;51.248;6.808;2023-02-15T05:57:45;40.63;;;20.90;;
43248;SDS011;29216;51.248;6.808;2023-02-15T06:00:11;40.70;;;20.83;;
43248;SDS011;29216;51.248;6.808;2023-02-15T06:02:38;40.80;;;20.50;;
43248;SDS011;29216;51.248;6.808;2023-02-15T06:05:04;39.30;;;20.23;;
43248;SDS011;29216;51.248;6.808;2023-02-15T06:07:31;40.17;;;20.33;;
43248;SDS011;29216;51.248;6.808;2023-02-15T06:09:56;43.20;;;21.10;;
43248;SDS011;29216;51.248;6.808;2023-02-15T06:12:22;38.33;;;20.47;;
43248;SDS011;29216;51.248;6.808;2023-02-15T06:14:48;37.47;;;21.10;;
43248;SDS011;29216;51.248;6.808;2023-02-15T06:17:13;39.73;;;20.97;;
43248;SDS011;29216;51.248;6.808;2023-02-15T06:19:39;37.27;;;19.43;;
43248;SDS011;29216;51.248;6.808;2023-02-15T06:22:05;36.60;;;20.30;;
43248;SDS011;29216;51.248;6.808;2023-02-15T06:24:31;35.83;;;20.20;;
43248;SDS011;29216;51.248;6.808;2023-02-15T06:26:57;39.30;;;20.40;;
43248;SDS011;29216;51.248;6.808;2023-02-15T06:29:25;42.13;;;20.97;;
43248;SDS011;29216;51.248;6.808;2023-02-15T06:31:51;43.97;;;20.13;;
43248;SDS011;29216;51.248;6.808;2023-02-15T06:34:16;40.03;;;21.20;;
43248;SDS011;29216;51.248;6.808;2023-02-15T06:36:42;37.93;;;20.13;;
43248;SDS011;29216;51.248;6.808;2023-02-15T06:39:08;36.37;;;19.20;;
43248;SDS011;29216;51.248;6.808;2023-02-15T06:41:33;39.87;;;20.97;;
43248;SDS011;29216;51.248;6.808;2023-02-15T06:43:59;45.20;;;20.73;;
43248;SDS011;29216;51.248;6.808;2023-02-15T06:46:25;43.17;;;21.40;;
43248;SDS011;29216;51.248;6.808;2023-02-15T06:48:51;34.77;;;19.20;;
43248;SDS011;29216;51.248;6.808;2023-02-15T06:51:16;39.17;;;20.03;;
43248;SDS011;29216;51.248;6.808;2023-02-15T06:53:42;37.43;;;19.80;;
43248;SDS011;29216;51.248;6.808;2023-02-15T06:56:08;41.80;;;21.47;;
43248;SDS011;29216;51.248;6.808;2023-02-15T06:58:35;35.53;;;18.08;;
43248;SDS011;29216;51.248;6.808;2023-02-15T07:01:02;31.97;;;18.27;;
43248;SDS011;29216;51.248;6.808;2023-02-15T07:03:28;35.83;;;19.70;;
43248;SDS011;29216;51.248;6.808;2023-02-15T07:05:58;36.70;;;19.97;;
43248;SDS011;29216;51.248;6.808;2023-02-15T07:08:25;39.13;;;19.50;;
43248;SDS011;29216;51.248;6.808;2023-02-15T07:10:52;38.10;;;20.00;;
43248;SDS011;29216;51.248;6.808;2023-02-15T07:13:18;36.80;;;20.17;;
43248;SDS011;29216;51.248;6.808;2023-02-15T07:15:48;32.38;;;17.65;;
43248;SDS011;29216;51.248;6.808;2023-02-15T07:18:21;41.08;;;19.58;;
43248;SDS011;29216;51.248;6.808;2023-02-15T07:20:46;31.08;;;18.58;;
43248;SDS011;29216;51.248;6.808;2023-02-15T07:23:12;32.22;;;17.48;;
43248;SDS011;29216;51.248;6.808;2023-02-15T07:25:41;33.17;;;18.97;;
43248;SDS011;29216;51.248;6.808;2023-02-15T07:28:06;33.63;;;18.48;;
43248;SDS011;29216;51.248;6.808;2023-02-15T07:30:34;32.72;;;18.45;;
43248;SDS011;29216;51.248;6.808;2023-02-15T07:33:03;34.00;;;17.85;;
43248;SDS011;29216;51.248;6.808;2023-02-15T07:35:50;28.05;;;16.77;;
43248;SDS011;29216;51.248;6.808;2023-02-15T07:38:21;35.88;;;17.30;;
43248;SDS011;29216;51.248;6.808;2023-02-15T07:40:47;27.23;;;15.82;;
43248;SDS011;29216;51.248;6.808;2023-02-15T07:43:13;30.05;;;15.82;;
43248;SDS011;29216;51.248;6.808;2023-02-15T07:45:39;26.73;;;15.48;;
43248;SDS011;29216;51.248;6.808;2023-02-15T07:48:05;22.38;;;13.82;;
43248;SDS011;29216;51.248;6.808;2023-02-15T07:50:32;26.90;;;16.10;;
43248;SDS011;29216;51.248;6.808;2023-02-15T07:52:58;25.85;;;14.60;;
43248;SDS011;29216;51.248;6.808;2023-02-15T07:55:26;22.92;;;14.15;;
43248;SDS011;29216;51.248;6.808;2023-02-15T07:57:52;22.83;;;14.95;;
43248;SDS011;29216;51.248;6.808;2023-02-15T08:00:19;22.02;;;13.45;;
43248;SDS011;29216;51.248;6.808;2023-02-15T08:02:50;22.27;;;14.23;;
43248;SDS011;29216;51.248;6.808;2023-02-15T08:05:37;21.13;;;13.80;;
43248;SDS011;29216;51.248;6.808;2023-02-15T08:08:04;24.60;;;14.52;;
43248;SDS011;29216;51.248;6.808;2023-02-15T08:10:30;24.23;;;14.07;;
43248;SDS011;29216;51.248;6.808;2023-02-15T08:13:14;21.88;;;14.32;;
43248;SDS011;29216;51.248;6.808;2023-02-15T08:15:40;25.35;;;13.85;;
43248;SDS011;29216;51.248;6.808;2023-02-15T08:18:13;22.77;;;13.60;;
43248;SDS011;29216;51.248;6.808;2023-02-15T08:20:38;24.85;;;15.63;;
43248;SDS011;29216;51.248;6.808;2023-02-15T08:23:04;21.63;;;13.70;;
43248;SDS011;29216;51.248;6.808;2023-02-15T08:25:29;23.88;;;14.80;;
43248;SDS011;29216;51.248;6.808;2023-02-15T08:27:55;22.17;;;13.27;;
43248;SDS011;29216;51.248;6.808;2023-02-15T08:30:21;23.88;;;14.65;;
43248;SDS011;29216;51.248;6.808;2023-02-15T08:32:46;26.85;;;14.60;;
43248;SDS011;29216;51.248;6.808;2023-02-15T08:35:12;24.88;;;14.32;;
43248;SDS011;29216;51.248;6.808;2023-02-15T08:37:37;27.02;;;14.65;;
43248;SDS011;29216;51.248;6.808;2023-02-15T08:40:03;23.25;;;13.93;;
43248;SDS011;29216;51.248;6.808;2023-02-15T08:42:31;27.42;;;15.02;;
43248;SDS011;29216;51.248;6.808;2023-02-15T08:44:58;22.10;;;14.02;;
43248;SDS011;29216;51.248;6.808;2023-02-15T08:47:23;24.63;;;14.68;;
43248;SDS011;29216;51.248;6.808;2023-02-15T08:49:49;21.08;;;13.75;;
43248;SDS011;29216;51.248;6.808;2023-02-15T08:52:16;24.83;;;14.35;;
43248;SDS011;29216;51.248;6.808;2023-02-15T08:54:41;24.65;;;13.23;;
43248;SDS011;29216;51.248;6.808;2023-02-15T08:57:07;22.27;;;12.70;;
43248;SDS011;29216;51.248;6.808;2023-02-15T08:59:33;26.42;;;13.88;;
43248;SDS011;29216;51.248;6.808;2023-02-15T09:01:58;26.42;;;14.10;;
43248;SDS011;29216;51.248;6.808;2023-02-15T09:04:25;22.98;;;12.80;;
43248;SDS011;29216;51.248;6.808;2023-02-15T09:06:51;22.65;;;12.98;;
43248;SDS011;29216;51.248;6.808;2023-02-15T09:09:17;22.20;;;12.77;;
43248;SDS011;29216;51.248;6.808;2023-02-15T09:11:44;20.17;;;13.23;;
43248;SDS011;29216;51.248;6.808;2023-02-15T09:14:16;22.25;;;12.80;;
43248;SDS011;29216;51.248;6.808;2023-02-15T09:16:45;20.33;;;12.65;;
43248;SDS011;29216;51.248;6.808;2023-02-15T09:19:13;23.17;;;13.18;;
43248;SDS011;29216;51.248;6.808;2023-02-15T09:21:43;21.17;;;12.80;;
43248;SDS011;29216;51.248;6.808;2023-02-15T09:24:10;20.58;;;13.30;;
43248;SDS011;29216;51.248;6.808;2023-02-15T09:26:38;20.90;;;12.35;;
43248;SDS011;29216;51.248;6.808;2023-02-15T09:29:06;20.55;;;12.10;;
43248;SDS011;29216;51.248;6.808;2023-02-15T09:31:33;20.48;;;12.85;;
43248;SDS011;29216;51.248;6.808;2023-02-15T09:34:02;20.75;;;12.65;;
43248;SDS011;29216;51.248;6.808;2023-02-15T09:36:32;24.58;;;13.73;;
43248;SDS011;29216;51.248;6.808;2023-02-15T09:39:07;19.95;;;12.32;;
43248;SDS011;29216;51.248;6.808;2023-02-15T10:14:18;15.73;;;10.80;;
43248;SDS011;29216;51.248;6.808;2023-02-15T10:22:15;19.38;;;11.52;;
43248;SDS011;29216;51.248;6.808;2023-02-15T10:27:44;19.83;;;11.95;;
43248;SDS011;29216;51.248;6.808;2023-02-15T10:30:20;18.52;;;11.27;;
43248;SDS011;29216;51.248;6.808;2023-02-15T10:33:00;19.17;;;10.95;;
43248;SDS011;29216;51.248;6.808;2023-02-15T10:49:14;18.40;;;10.50;;
43248;SDS011;29216;51.248;6.808;2023-02-15T10:54:45;19.08;;;11.45;;
43248;SDS011;29216;51.248;6.808;2023-02-15T11:00:18;16.48;;;9.82;;
43248;SDS011;29216;51.248;6.808;2023-02-15T11:06:14;18.75;;;10.63;;
43248;SDS011;29216;51.248;6.808;2023-02-15T11:09:01;19.80;;;11.07;;
43248;SDS011;29216;51.248;6.808;2023-02-15T11:11:32;18.80;;;10.48;;
43248;SDS011;29216;51.248;6.808;2023-02-15T11:16:51;15.30;;;10.63;;
43248;SDS011;29216;51.248;6.808;2023-02-15T11:19:24;16.27;;;10.15;;
43248;SDS011;29216;51.248;6.808;2023-02-15T11:21:58;18.20;;;10.63;;
43248;SDS011;29216;51.248;6.808;2023-02-15T11:24:27;23.20;;;10.18;;
43248;SDS011;29216;51.248;6.808;2023-02-15T11:26:56;17.05;;;10.70;;
43248;SDS011;29216;51.248;6.808;2023-02-15T11:32:18;21.30;;;10.35;;
43248;SDS011;29216;51.248;6.808;2023-02-15T11:37:38;15.60;;;10.38;;
43248;SDS011;29216;51.248;6.808;2023-02-15T11:43:07;12.98;;;9.35;;
43248;SDS011;29216;51.248;6.808;2023-02-15T11:45:52;15.82;;;9.63;;
43248;SDS011;29216;51.248;6.808;2023-02-15T11:48:19;19.00;;;9.88;;
43248;SDS011;29216;51.248;6.808;2023-02-15T11:50:45;17.83;;;10.18;;
43248;SDS011;29216;51.248;6.808;2023-02-15T11:53:18;19.35;;;10.25;;
43248;SDS011;29216;51.248;6.808;2023-02-15T11:55:47;16.27;;;10.60;;
43248;SDS011;29216;51.248;6.808;2023-02-15T12:06:30;18.98;;;10.32;;
43248;SDS011;29216;51.248;6.808;2023-02-15T12:12:21;15.68;;;9.73;;
43248;SDS011;29216;51.248;6.808;2023-02-15T12:14:52;15.50;;;9.68;;
43248;SDS011;29216;51.248;6.808;2023-02-15T12:17:23;17.67;;;9.18;;
43248;SDS011;29216;51.248;6.808;2023-02-15T12:19:52;15.88;;;9.88;;
43248;SDS011;29216;51.248;6.808;2023-02-15T12:22:25;17.25;;;9.93;;
43248;SDS011;29216;51.248;6.808;2023-02-15T12:24:54;18.98;;;10.40;;
43248;SDS011;29216;51.248;6.808;2023-02-15T12:27:27;21.45;;;10.18;;
43248;SDS011;29216;51.248;6.808;2023-02-15T12:29:59;16.95;;;10.43;;
43248;SDS011;29216;51.248;6.808;2023-02-15T12:32:36;13.70;;;8.48;;
43248;SDS011;29216;51.248;6.808;2023-02-15T12:38:04;16.38;;;9.93;;
43248;SDS011;29216;51.248;6.808;2023-02-15T12:40:33;18.30;;;10.57;;
43248;SDS011;29216;51.248;6.808;2023-02-15T12:43:00;17.90;;;9.48;;
43248;SDS011;29216;51.248;6.808;2023-02-15T12:45:33;17.80;;;10.25;;
43248;SDS011;29216;51.248;6.808;2023-02-15T12:50:42;17.10;;;9.77;;
43248;SDS011;29216;51.248;6.808;2023-02-15T12:53:20;16.17;;;10.50;;
43248;SDS011;29216;51.248;6.808;2023-02-15T12:58:23;18.63;;;10.15;;
43248;SDS011;29216;51.248;6.808;2023-02-15T13:03:39;15.02;;;8.95;;
43248;SDS011;29216;51.248;6.808;2023-02-15T13:06:19;16.90;;;9.10;;
43248;SDS011;29216;51.248;6.808;2023-02-15T13:08:47;19.33;;;9.88;;
43248;SDS011;29216;51.248;6.808;2023-02-15T13:11:28;16.08;;;10.23;;
43248;SDS011;29216;51.248;6.808;2023-02-15T13:16:42;16.63;;;9.35;;
43248;SDS011;29216;51.248;6.808;2023-02-15T13:19:29;19.23;;;10.20;;
43248;SDS011;29216;51.248;6.808;2023-02-15T13:22:06;14.95;;;9.52;;
43248;SDS011;29216;51.248;6.808;2023-02-15T13:24:39;16.70;;;9.60;;
43248;SDS011;29216;51.248;6.808;2023-02-15T13:27:16;15.77;;;9.32;;
43248;SDS011;29216;51.248;6.808;2023-02-15T13:29:44;15.23;;;9.30;;
43248;SDS011;29216;51.248;6.808;2023-02-15T13:34:57;17.02;;;9.63;;
43248;SDS011;29216;51.248;6.808;2023-02-15T13:43:46;17.50;;;9.73;;
43248;SDS011;29216;51.248;6.808;2023-02-15T14:00:26;16.92;;;8.95;;
43248;SDS011;29216;51.248;6.808;2023-02-15T14:08:52;14.40;;;9.07;;
43248;SDS011;29216;51.248;6.808;2023-02-15T14:19:34;13.73;;;8.88;;
43248;SDS011;29216;51.248;6.808;2023-02-15T14:22:07;14.18;;;8.45;;
43248;SDS011;29216;51.248;6.808;2023-02-15T14:30:36;15.40;;;8.75;;
43248;SDS011;29216;51.248;6.808;2023-02-15T14:33:07;16.80;;;8.70;;
43248;SDS011;29216;51.248;6.808;2023-02-15T14:35:39;15.00;;;8.40;;
43248;SDS011;29216;51.248;6.808;2023-02-15T14:49:36;15.20;;;9.13;;
43248;SDS011;29216;51.248;6.808;2023-02-15T14:52:09;14.13;;;8.40;;
43248;SDS011;29216;51.248;6.808;2023-02-15T15:04:38;14.88;;;8.30;;
43248;SDS011;29216;51.248;6.808;2023-02-15T15:09:37;15.05;;;8.73;;
43248;SDS011;29216;51.248;6.808;2023-02-15T15:14:46;17.23;;;8.82;;
43248;SDS011;29216;51.248;6.808;2023-02-15T15:17:58;15.80;;;8.75;;
43248;SDS011;29216;51.248;6.808;2023-02-15T15:22:32;15.25;;;9.77;;
43248;SDS011;29216;51.248;6.808;2023-02-15T15:30:46;16.48;;;9.20;;
43248;SDS011;29216;51.248;6.808;2023-02-15T15:32:58;16.70;;;9.38;;
43248;SDS011;29216;51.248;6.808;2023-02-15T15:49:08;16.13;;;9.63;;
43248;SDS011;29216;51.248;6.808;2023-02-15T15:51:40;16.92;;;9.63;;
43248;SDS011;29216;51.248;6.808;2023-02-15T15:54:21;18.67;;;10.13;;
43248;SDS011;29216;51.248;6.808;2023-02-15T15:56:50;16.15;;;9.55;;
43248;SDS011;29216;51.248;6.808;2023-02-15T15:59:20;17.67;;;9.98;;
43248;SDS011;29216;51.248;6.808;2023-02-15T16:01:49;14.30;;;9.10;;
43248;SDS011;29216;51.248;6.808;2023-02-15T16:04:28;16.77;;;8.80;;
43248;SDS011;29216;51.248;6.808;2023-02-15T16:06:55;17.83;;;10.23;;
43248;SDS011;29216;51.248;6.808;2023-02-15T16:09:25;17.58;;;9.63;;
43248;SDS011;29216;51.248;6.808;2023-02-15T16:11:53;18.27;;;9.85;;
43248;SDS011;29216;51.248;6.808;2023-02-15T16:14:27;16.70;;;10.45;;
43248;SDS011;29216;51.248;6.808;2023-02-15T16:17:02;15.68;;;9.88;;
43248;SDS011;29216;51.248;6.808;2023-02-15T16:19:32;16.17;;;10.32;;
43248;SDS011;29216;51.248;6.808;2023-02-15T16:22:00;16.13;;;10.27;;
43248;SDS011;29216;51.248;6.808;2023-02-15T16:32:45;17.63;;;9.77;;
43248;SDS011;29216;51.248;6.808;2023-02-15T16:35:13;17.08;;;9.27;;
43248;SDS011;29216;51.248;6.808;2023-02-15T16:37:41;16.23;;;10.20;;
43248;SDS011;29216;51.248;6.808;2023-02-15T16:40:12;14.27;;;9.88;;
43248;SDS011;29216;51.248;6.808;2023-02-15T16:42:54;14.70;;;9.27;;
43248;SDS011;29216;51.248;6.808;2023-02-15T16:45:22;14.50;;;9.18;;
43248;SDS011;29216;51.248;6.808;2023-02-15T16:47:52;16.15;;;10.15;;
43248;SDS011;29216;51.248;6.808;2023-02-15T16:50:28;15.07;;;9.10;;
43248;SDS011;29216;51.248;6.808;2023-02-15T16:52:58;18.73;;;10.23;;
43248;SDS011;29216;51.248;6.808;2023-02-15T16:55:25;14.50;;;8.98;;
43248;SDS011;29216;51.248;6.808;2023-02-15T16:57:57;16.42;;;9.95;;
43248;SDS011;29216;51.248;6.808;2023-02-15T17:00:28;12.40;;;8.38;;
43248;SDS011;29216;51.248;6.808;2023-02-15T17:05:31;15.55;;;9.40;;
43248;SDS011;29216;51.248;6.808;2023-02-15T17:08:15;21.10;;;11.48;;
43248;SDS011;29216;51.248;6.808;2023-02-15T17:13:24;20.38;;;10.25;;
43248;SDS011;29216;51.248;6.808;2023-02-15T17:18:26;15.50;;;10.18;;
43248;SDS011;29216;51.248;6.808;2023-02-15T17:20:55;18.73;;;10.65;;
43248;SDS011;29216;51.248;6.808;2023-02-15T17:23:28;15.27;;;10.30;;
43248;SDS011;29216;51.248;6.808;2023-02-15T17:26:00;29.27;;;10.88;;
43248;SDS011;29216;51.248;6.808;2023-02-15T17:28:36;18.63;;;10.55;;
43248;SDS011;29216;51.248;6.808;2023-02-15T17:31:01;18.77;;;9.57;;
43248;SDS011;29216;51.248;6.808;2023-02-15T17:36:04;17.77;;;10.27;;
43248;SDS011;29216;51.248;6.808;2023-02-15T17:41:35;18.13;;;10.32;;
43248;SDS011;29216;51.248;6.808;2023-02-15T17:44:02;15.50;;;10.30;;
43248;SDS011;29216;51.248;6.808;2023-02-15T17:46:29;15.68;;;9.80;;
43248;SDS011;29216;51.248;6.808;2023-02-15T17:48:59;15.95;;;10.20;;
43248;SDS011;29216;51.248;6.808;2023-02-15T17:51:25;17.92;;;9.65;;
43248;SDS011;29216;51.248;6.808;2023-02-15T17:53:51;20.52;;;10.50;;
43248;SDS011;29216;51.248;6.808;2023-02-15T17:59:02;16.55;;;9.75;;
43248;SDS011;29216;51.248;6.808;2023-02-15T18:01:31;18.05;;;9.85;;
43248;SDS011;29216;51.248;6.808;2023-02-15T18:04:21;17.05;;;10.10;;
43248;SDS011;29216;51.248;6.808;2023-02-15T18:07:10;16.27;;;9.70;;
43248;SDS011;29216;51.248;6.808;2023-02-15T18:09:55;15.40;;;10.38;;
43248;SDS011;29216;51.248;6.808;2023-02-15T18:12:40;16.23;;;10.02;;
43248;SDS011;29216;51.248;6.808;2023-02-15T18:15:06;19.38;;;10.65;;
43248;SDS011;29216;51.248;6.808;2023-02-15T18:17:45;18.90;;;10.70;;
43248;SDS011;29216;51.248;6.808;2023-02-15T18:22:48;21.08;;;10.48;;
43248;SDS011;29216;51.248;6.808;2023-02-15T18:25:16;17.40;;;10.68;;
43248;SDS011;29216;51.248;6.808;2023-02-15T18:27:44;18.77;;;10.35;;
43248;SDS011;29216;51.248;6.808;2023-02-15T18:30:18;17.88;;;10.48;;
43248;SDS011;29216;51.248;6.808;2023-02-15T18:32:46;16.73;;;10.75;;
43248;SDS011;29216;51.248;6.808;2023-02-15T18:35:15;22.90;;;11.27;;
43248;SDS011;29216;51.248;6.808;2023-02-15T18:37:44;16.30;;;10.55;;
43248;SDS011;29216;51.248;6.808;2023-02-15T18:40:15;17.98;;;10.90;;
43248;SDS011;29216;51.248;6.808;2023-02-15T18:42:47;18.77;;;10.80;;
43248;SDS011;29216;51.248;6.808;2023-02-15T18:45:20;18.73;;;11.05;;
43248;SDS011;29216;51.248;6.808;2023-02-15T18:47:52;20.25;;;11.13;;
43248;SDS011;29216;51.248;6.808;2023-02-15T18:50:19;19.65;;;10.65;;
43248;SDS011;29216;51.248;6.808;2023-02-15T18:52:47;20.73;;;11.38;;
43248;SDS011;29216;51.248;6.808;2023-02-15T18:55:18;15.02;;;10.32;;
43248;SDS011;29216;51.248;6.808;2023-02-15T18:57:46;16.20;;;10.57;;